sensor_id;sensor_type;location;lat;lon;timestamp;pressure;altitude;pressure_sealevel;temperature;humidity
71126;BME280;58785;55.566;38.058;2023-09-18T00:01:02;100870.66;;;10.59;81.08
71126;BME280;58785;55.566;38.058;2023-09-18T00:03:28;100872.75;;;10.55;81.12
71126;BME280;58785;55.566;38.058;2023-09-18T00:05:54;100867.53;;;10.54;81.38
71126;BME280;58785;55.566;38.058;2023-09-18T00:08:23;100873.44;;;10.57;80.76
71126;BME280;58785;55.566;38.058;2023-09-18T00:10:52;100870.91;;;10.56;81.31
71126;BME280;58785;55.566;38.058;2023-09-18T00:13:19;100876.53;;;10.53;81.35
71126;BME280;58785;55.566;38.058;2023-09-18T00:15:45;100877.59;;;10.50;80.43
71126;BME280;58785;55.566;38.058;2023-09-18T00:18:14;100869.88;;;10.47;81.18
71126;BME280;58785;55.566;38.058;2023-09-18T00:20:40;100878.56;;;10.49;81.39
71126;BME280;58785;55.566;38.058;2023-09-18T00:23:07;100873.50;;;10.46;81.44
71126;BME280;58785;55.566;38.058;2023-09-18T00:25:33;100873.94;;;10.51;81.41
71126;BME280;58785;55.566;38.058;2023-09-18T00:27:59;100875.28;;;10.57;81.32
71126;BME280;58785;55.566;38.058;2023-09-18T00:30:25;100880.94;;;10.63;81.73
71126;BME280;58785;55.566;38.058;2023-09-18T00:32:51;100871.00;;;10.65;81.16
71126;BME280;58785;55.566;38.058;2023-09-18T00:35:17;100884.63;;;10.72;81.92
71126;BME280;58785;55.566;38.058;2023-09-18T00:37:44;100878.22;;;10.75;81.15
71126;BME280;58785;55.566;38.058;2023-09-18T00:40:11;100878.78;;;10.78;81.23
71126;BME280;58785;55.566;38.058;2023-09-18T00:42:37;100866.91;;;10.82;81.25
71126;BME280;58785;55.566;38.058;2023-09-18T00:45:03;100867.47;;;10.86;81.96
71126;BME280;58785;55.566;38.058;2023-09-18T00:47:31;100865.09;;;10.83;81.74
71126;BME280;58785;55.566;38.058;2023-09-18T00:49:57;100869.03;;;10.88;81.46
71126;BME280;58785;55.566;38.058;2023-09-18T00:52:23;100869.75;;;10.90;81.47
71126;BME280;58785;55.566;38.058;2023-09-18T00:54:51;100871.44;;;10.91;81.64
71126;BME280;58785;55.566;38.058;2023-09-18T00:57:19;100871.91;;;10.97;81.65
71126;BME280;58785;55.566;38.058;2023-09-18T00:59:46;100861.09;;;10.98;81.66
71126;BME280;58785;55.566;38.058;2023-09-18T01:02:12;100860.03;;;11.10;81.36
71126;BME280;58785;55.566;38.058;2023-09-18T01:04:42;100865.97;;;11.14;81.20
71126;BME280;58785;55.566;38.058;2023-09-18T01:07:10;100850.94;;;11.13;81.15
71126;BME280;58785;55.566;38.058;2023-09-18T01:09:37;100867.84;;;11.23;81.51
71126;BME280;58785;55.566;38.058;2023-09-18T01:12:33;100852.66;;;11.23;81.41
71126;BME280;58785;55.566;38.058;2023-09-18T01:15:09;100861.53;;;11.24;81.89
71126;BME280;58785;55.566;38.058;2023-09-18T01:17:38;100866.44;;;11.29;81.25
71126;BME280;58785;55.566;38.058;2023-09-18T01:20:04;100856.34;;;11.32;81.56
71126;BME280;58785;55.566;38.058;2023-09-18T01:22:32;100857.06;;;11.34;81.53
71126;BME280;58785;55.566;38.058;2023-09-18T01:24:58;100840.44;;;11.31;81.38
71126;BME280;58785;55.566;38.058;2023-09-18T01:27:24;100839.22;;;11.35;81.39
71126;BME280;58785;55.566;38.058;2023-09-18T01:29:50;100834.31;;;11.40;81.76
71126;BME280;58785;55.566;38.058;2023-09-18T01:32:16;100845.44;;;11.45;81.66
71126;BME280;58785;55.566;38.058;2023-09-18T01:34:49;100841.22;;;11.52;80.64
71126;BME280;58785;55.566;38.058;2023-09-18T01:37:36;100844.34;;;11.57;80.96
71126;BME280;58785;55.566;38.058;2023-09-18T01:40:04;100847.59;;;11.61;80.63
71126;BME280;58785;55.566;38.058;2023-09-18T01:42:33;100840.31;;;11.63;81.01
71126;BME280;58785;55.566;38.058;2023-09-18T01:45:01;100835.53;;;11.66;80.86
71126;BME280;58785;55.566;38.058;2023-09-18T01:47:32;100827.91;;;11.62;80.79
71126;BME280;58785;55.566;38.058;2023-09-18T01:50:03;100844.81;;;11.72;80.63
71126;BME280;58785;55.566;38.058;2023-09-18T01:52:32;100828.06;;;11.70;80.27
71126;BME280;58785;55.566;38.058;2023-09-18T01:54:58;100834.00;;;11.73;80.80
71126;BME280;58785;55.566;38.058;2023-09-18T01:57:24;100828.66;;;11.73;80.29
71126;BME280;58785;55.566;38.058;2023-09-18T01:59:51;100826.00;;;11.73;80.95
71126;BME280;58785;55.566;38.058;2023-09-18T02:02:22;100826.00;;;11.73;81.23
71126;BME280;58785;55.566;38.058;2023-09-18T02:04:48;100830.66;;;11.81;80.27
71126;BME280;58785;55.566;38.058;2023-09-18T02:07:14;100831.50;;;11.82;80.45
71126;BME280;58785;55.566;38.058;2023-09-18T02:09:40;100818.53;;;11.77;80.64
71126;BME280;58785;55.566;38.058;2023-09-18T02:12:07;100815.47;;;11.82;80.80
71126;BME280;58785;55.566;38.058;2023-09-18T02:14:37;100822.38;;;11.84;80.18
71126;BME280;58785;55.566;38.058;2023-09-18T02:17:04;100815.59;;;11.80;81.14
71126;BME280;58785;55.566;38.058;2023-09-18T02:19:31;100815.47;;;11.82;80.61
71126;BME280;58785;55.566;38.058;2023-09-18T02:21:57;100814.50;;;11.83;80.53
71126;BME280;58785;55.566;38.058;2023-09-18T02:24:23;100811.22;;;11.79;80.46
71126;BME280;58785;55.566;38.058;2023-09-18T02:26:49;100817.28;;;11.81;79.86
71126;BME280;58785;55.566;38.058;2023-09-18T02:29:16;100811.50;;;11.76;80.36
71126;BME280;58785;55.566;38.058;2023-09-18T02:31:45;100803.03;;;11.71;80.13
71126;BME280;58785;55.566;38.058;2023-09-18T02:34:11;100810.34;;;11.69;80.19
71126;BME280;58785;55.566;38.058;2023-09-18T02:36:37;100807.81;;;11.67;80.15
71126;BME280;58785;55.566;38.058;2023-09-18T02:39:03;100791.50;;;11.61;80.13
71126;BME280;58785;55.566;38.058;2023-09-18T02:41:29;100797.56;;;11.63;80.59
71126;BME280;58785;55.566;38.058;2023-09-18T02:43:55;100791.34;;;11.62;80.78
71126;BME280;58785;55.566;38.058;2023-09-18T02:46:21;100796.84;;;11.70;80.64
71126;BME280;58785;55.566;38.058;2023-09-18T02:48:47;100793.34;;;11.70;80.96
71126;BME280;58785;55.566;38.058;2023-09-18T02:51:13;100797.69;;;11.71;80.27
71126;BME280;58785;55.566;38.058;2023-09-18T02:53:39;100804.34;;;11.76;80.45
71126;BME280;58785;55.566;38.058;2023-09-18T02:56:06;100800.81;;;11.76;80.06
71126;BME280;58785;55.566;38.058;2023-09-18T02:58:32;100792.81;;;11.76;79.99
71126;BME280;58785;55.566;38.058;2023-09-18T03:00:58;100787.78;;;11.83;80.17
71126;BME280;58785;55.566;38.058;2023-09-18T03:03:25;100791.31;;;11.83;80.35
71126;BME280;58785;55.566;38.058;2023-09-18T03:05:51;100787.34;;;11.87;80.26
71126;BME280;58785;55.566;38.058;2023-09-18T03:08:17;100794.94;;;11.92;80.55
71126;BME280;58785;55.566;38.058;2023-09-18T03:10:43;100781.47;;;11.93;80.25
71126;BME280;58785;55.566;38.058;2023-09-18T03:13:11;100771.47;;;11.95;80.40
71126;BME280;58785;55.566;38.058;2023-09-18T03:15:38;100782.44;;;12.02;79.72
71126;BME280;58785;55.566;38.058;2023-09-18T03:18:06;100782.44;;;12.02;79.94
71126;BME280;58785;55.566;38.058;2023-09-18T03:20:35;100777.66;;;12.05;80.22
71126;BME280;58785;55.566;38.058;2023-09-18T03:23:01;100767.38;;;12.01;80.18
71126;BME280;58785;55.566;38.058;2023-09-18T03:25:28;100777.66;;;12.05;80.03
71126;BME280;58785;55.566;38.058;2023-09-18T03:27:57;100775.97;;;12.04;79.80
71126;BME280;58785;55.566;38.058;2023-09-18T03:30:23;100767.13;;;12.04;79.70
71126;BME280;58785;55.566;38.058;2023-09-18T03:32:50;100775.53;;;12.09;79.73
71126;BME280;58785;55.566;38.058;2023-09-18T03:35:16;100760.78;;;12.05;79.90
71126;BME280;58785;55.566;38.058;2023-09-18T03:37:52;100774.56;;;12.10;79.76
71126;BME280;58785;55.566;38.058;2023-09-18T03:40:20;100764.84;;;12.09;79.85
71126;BME280;58785;55.566;38.058;2023-09-18T03:42:47;100777.09;;;12.21;79.81
71126;BME280;58785;55.566;38.058;2023-09-18T03:45:13;100780.03;;;12.28;79.76
71126;BME280;58785;55.566;38.058;2023-09-18T03:47:41;100793.56;;;12.36;79.40
71126;BME280;58785;55.566;38.058;2023-09-18T03:50:11;100775.13;;;12.33;79.43
71126;BME280;58785;55.566;38.058;2023-09-18T03:52:38;100788.59;;;12.41;78.85
71126;BME280;58785;55.566;38.058;2023-09-18T03:55:08;100794.69;;;12.43;79.45
71126;BME280;58785;55.566;38.058;2023-09-18T03:57:35;100792.72;;;12.45;78.89
71126;BME280;58785;55.566;38.058;2023-09-18T04:00:04;100796.47;;;12.52;79.02
71126;BME280;58785;55.566;38.058;2023-09-18T04:02:30;100794.53;;;12.54;78.95
71126;BME280;58785;55.566;38.058;2023-09-18T04:04:56;100787.34;;;12.55;79.10
71126;BME280;58785;55.566;38.058;2023-09-18T04:07:22;100794.78;;;12.61;79.04
71126;BME280;58785;55.566;38.058;2023-09-18T04:09:48;100784.06;;;12.61;78.67
71126;BME280;58785;55.566;38.058;2023-09-18T04:12:15;100778.31;;;12.65;78.94
71126;BME280;58785;55.566;38.058;2023-09-18T04:14:45;100776.47;;;12.66;79.27
71126;BME280;58785;55.566;38.058;2023-09-18T04:17:11;100782.22;;;12.71;78.89
71126;BME280;58785;55.566;38.058;2023-09-18T04:19:37;100785.47;;;12.75;78.83
71126;BME280;58785;55.566;38.058;2023-09-18T04:22:04;100770.41;;;12.74;78.42
71126;BME280;58785;55.566;38.058;2023-09-18T04:24:30;100777.28;;;12.76;78.61
71126;BME280;58785;55.566;38.058;2023-09-18T04:26:56;100775.47;;;12.77;78.91
71126;BME280;58785;55.566;38.058;2023-09-18T04:29:22;100790.78;;;12.84;78.79
71126;BME280;58785;55.566;38.058;2023-09-18T04:31:48;100776.41;;;12.85;78.69
71126;BME280;58785;55.566;38.058;2023-09-18T04:34:14;100781.06;;;12.93;78.72
71126;BME280;58785;55.566;38.058;2023-09-18T04:36:40;100786.41;;;12.93;78.73
71126;BME280;58785;55.566;38.058;2023-09-18T04:39:07;100783.28;;;12.98;78.72
71126;BME280;58785;55.566;38.058;2023-09-18T04:41:34;100779.31;;;13.02;78.25
71126;BME280;58785;55.566;38.058;2023-09-18T04:44:01;100773.69;;;13.05;78.59
71126;BME280;58785;55.566;38.058;2023-09-18T04:46:27;100779.00;;;13.14;78.23
71126;BME280;58785;55.566;38.058;2023-09-18T04:48:55;100767.13;;;13.17;78.18
71126;BME280;58785;55.566;38.058;2023-09-18T04:51:21;100772.78;;;13.23;78.08
71126;BME280;58785;55.566;38.058;2023-09-18T04:53:47;100772.84;;;13.32;77.84
71126;BME280;58785;55.566;38.058;2023-09-18T04:56:13;100761.72;;;13.36;77.90
71126;BME280;58785;55.566;38.058;2023-09-18T04:58:39;100773.53;;;13.43;77.73
71126;BME280;58785;55.566;38.058;2023-09-18T05:01:05;100767.81;;;13.56;77.71
71126;BME280;58785;55.566;38.058;2023-09-18T05:03:35;100761.28;;;13.59;77.22
71126;BME280;58785;55.566;38.058;2023-09-18T05:06:02;100764.59;;;13.70;77.39
71126;BME280;58785;55.566;38.058;2023-09-18T05:08:31;100766.00;;;13.74;77.33
71126;BME280;58785;55.566;38.058;2023-09-18T05:10:58;100760.63;;;13.74;77.17
71126;BME280;58785;55.566;38.058;2023-09-18T05:13:24;100771.56;;;13.81;77.22
71126;BME280;58785;55.566;38.058;2023-09-18T05:15:50;100769.03;;;13.79;77.18
71126;BME280;58785;55.566;38.058;2023-09-18T05:18:17;100752.81;;;13.81;77.36
71126;BME280;58785;55.566;38.058;2023-09-18T05:20:42;100758.25;;;13.89;77.21
71126;BME280;58785;55.566;38.058;2023-09-18T05:23:08;100759.50;;;13.95;76.92
71126;BME280;58785;55.566;38.058;2023-09-18T05:25:34;100754.06;;;14.04;76.93
71126;BME280;58785;55.566;38.058;2023-09-18T05:28:04;100749.38;;;14.06;76.62
71126;BME280;58785;55.566;38.058;2023-09-18T05:30:33;100757.84;;;14.20;76.58
71126;BME280;58785;55.566;38.058;2023-09-18T05:33:02;100750.50;;;14.22;76.59
71126;BME280;58785;55.566;38.058;2023-09-18T05:35:39;100751.19;;;14.24;76.42
71126;BME280;58785;55.566;38.058;2023-09-18T05:38:05;100753.72;;;14.25;76.56
71126;BME280;58785;55.566;38.058;2023-09-18T05:40:32;100759.00;;;14.35;76.27
71126;BME280;58785;55.566;38.058;2023-09-18T05:42:59;100753.00;;;14.41;76.18
71126;BME280;58785;55.566;38.058;2023-09-18T05:45:25;100751.16;;;14.42;76.20
71126;BME280;58785;55.566;38.058;2023-09-18T05:47:53;100764.34;;;14.53;76.27
71126;BME280;58785;55.566;38.058;2023-09-18T05:50:20;100764.88;;;14.56;76.02
71126;BME280;58785;55.566;38.058;2023-09-18T05:52:47;100772.00;;;14.65;75.94
71126;BME280;58785;55.566;38.058;2023-09-18T05:55:15;100780.41;;;14.71;75.70
71126;BME280;58785;55.566;38.058;2023-09-18T05:57:42;100781.88;;;14.91;75.55
71126;BME280;58785;55.566;38.058;2023-09-18T06:00:09;100780.72;;;15.28;74.76
71126;BME280;58785;55.566;38.058;2023-09-18T06:02:40;100783.91;;;15.65;73.97
71126;BME280;58785;55.566;38.058;2023-09-18T06:05:13;100781.94;;;15.92;73.04
71126;BME280;58785;55.566;38.058;2023-09-18T06:07:41;100779.63;;;16.05;73.10
71126;BME280;58785;55.566;38.058;2023-09-18T06:10:08;100770.53;;;16.22;72.56
71126;BME280;58785;55.566;38.058;2023-09-18T06:12:34;100777.13;;;16.36;72.16
71126;BME280;58785;55.566;38.058;2023-09-18T06:15:00;100770.69;;;16.53;71.73
71126;BME280;58785;55.566;38.058;2023-09-18T06:17:26;100774.22;;;16.78;71.45
71126;BME280;58785;55.566;38.058;2023-09-18T06:19:52;100776.91;;;16.94;70.61
71126;BME280;58785;55.566;38.058;2023-09-18T06:22:18;100765.78;;;16.98;70.98
71126;BME280;58785;55.566;38.058;2023-09-18T06:24:44;100766.56;;;17.14;70.59
71126;BME280;58785;55.566;38.058;2023-09-18T06:27:10;100779.16;;;17.22;70.53
71126;BME280;58785;55.566;38.058;2023-09-18T06:29:36;100771.25;;;17.20;70.22
71126;BME280;58785;55.566;38.058;2023-09-18T06:32:07;100768.06;;;17.17;70.42
71126;BME280;58785;55.566;38.058;2023-09-18T06:34:33;100774.44;;;17.24;70.22
71126;BME280;58785;55.566;38.058;2023-09-18T06:36:59;100769.34;;;17.37;69.75
71126;BME280;58785;55.566;38.058;2023-09-18T06:39:25;100777.47;;;17.60;69.44
71126;BME280;58785;55.566;38.058;2023-09-18T06:41:52;100772.88;;;17.69;69.26
71126;BME280;58785;55.566;38.058;2023-09-18T06:44:18;100775.16;;;17.88;68.77
71126;BME280;58785;55.566;38.058;2023-09-18T06:46:44;100764.00;;;17.91;68.63
71126;BME280;58785;55.566;38.058;2023-09-18T06:49:10;100761.47;;;17.90;68.76
71126;BME280;58785;55.566;38.058;2023-09-18T06:51:36;100771.13;;;17.84;68.60
71126;BME280;58785;55.566;38.058;2023-09-18T06:54:02;100774.59;;;17.62;69.03
71126;BME280;58785;55.566;38.058;2023-09-18T06:56:29;100781.38;;;17.58;69.34
71126;BME280;58785;55.566;38.058;2023-09-18T06:58:55;100785.38;;;17.70;69.16
71126;BME280;58785;55.566;38.058;2023-09-18T07:01:22;100768.72;;;17.89;68.77
71126;BME280;58785;55.566;38.058;2023-09-18T07:03:50;100778.41;;;18.06;68.11
71126;BME280;58785;55.566;38.058;2023-09-18T07:06:19;100766.81;;;18.21;67.91
71126;BME280;58785;55.566;38.058;2023-09-18T07:08:49;100758.28;;;18.32;67.53
71126;BME280;58785;55.566;38.058;2023-09-18T07:11:16;100773.97;;;18.51;67.34
71126;BME280;58785;55.566;38.058;2023-09-18T07:13:45;100767.81;;;18.65;67.03
71126;BME280;58785;55.566;38.058;2023-09-18T07:16:11;100760.91;;;18.78;66.53
71126;BME280;58785;55.566;38.058;2023-09-18T07:18:39;100764.00;;;18.89;66.45
71126;BME280;58785;55.566;38.058;2023-09-18T07:21:08;100767.34;;;18.91;66.53
71126;BME280;58785;55.566;38.058;2023-09-18T07:23:34;100776.66;;;19.04;66.38
71126;BME280;58785;55.566;38.058;2023-09-18T07:26:03;100780.88;;;19.21;65.89
71126;BME280;58785;55.566;38.058;2023-09-18T07:28:29;100779.91;;;19.43;65.34
71126;BME280;58785;55.566;38.058;2023-09-18T07:30:55;100772.91;;;19.64;64.79
71126;BME280;58785;55.566;38.058;2023-09-18T07:33:21;100781.41;;;19.97;64.25
71126;BME280;58785;55.566;38.058;2023-09-18T07:35:47;100773.53;;;20.23;63.76
71126;BME280;58785;55.566;38.058;2023-09-18T07:38:13;100784.44;;;20.51;62.97
71126;BME280;58785;55.566;38.058;2023-09-18T07:40:40;100783.19;;;20.54;62.84
71126;BME280;58785;55.566;38.058;2023-09-18T07:43:06;100784.00;;;20.48;63.20
71126;BME280;58785;55.566;38.058;2023-09-18T07:45:34;100784.09;;;20.39;63.14
71126;BME280;58785;55.566;38.058;2023-09-18T07:48:00;100779.47;;;20.33;63.04
71126;BME280;58785;55.566;38.058;2023-09-18T07:50:26;100782.63;;;20.37;63.06
71126;BME280;58785;55.566;38.058;2023-09-18T07:52:53;100793.41;;;20.30;63.05
71126;BME280;58785;55.566;38.058;2023-09-18T07:55:19;100787.34;;;20.28;63.19
71126;BME280;58785;55.566;38.058;2023-09-18T07:57:45;100792.97;;;20.27;62.92
71126;BME280;58785;55.566;38.058;2023-09-18T08:00:13;100794.56;;;20.43;62.55
71126;BME280;58785;55.566;38.058;2023-09-18T08:02:41;100785.28;;;20.52;62.58
71126;BME280;58785;55.566;38.058;2023-09-18T08:05:08;100780.47;;;20.47;62.34
71126;BME280;58785;55.566;38.058;2023-09-18T08:07:36;100787.22;;;20.36;62.40
71126;BME280;58785;55.566;38.058;2023-09-18T08:10:03;100797.91;;;20.23;62.66
71126;BME280;58785;55.566;38.058;2023-09-18T08:12:32;100808.31;;;20.20;62.84
71126;BME280;58785;55.566;38.058;2023-09-18T08:15:01;100799.47;;;20.11;62.91
71126;BME280;58785;55.566;38.058;2023-09-18T08:17:31;100803.28;;;20.17;63.02
71126;BME280;58785;55.566;38.058;2023-09-18T08:19:58;100793.41;;;20.30;62.84
71126;BME280;58785;55.566;38.058;2023-09-18T08:22:24;100798.06;;;20.58;62.07
71126;BME280;58785;55.566;38.058;2023-09-18T08:24:52;100791.84;;;20.64;61.82
71126;BME280;58785;55.566;38.058;2023-09-18T08:27:19;100798.50;;;20.61;61.80
71126;BME280;58785;55.566;38.058;2023-09-18T08:29:46;100794.91;;;20.54;61.81
71126;BME280;58785;55.566;38.058;2023-09-18T08:32:13;100796.75;;;20.54;61.73
71126;BME280;58785;55.566;38.058;2023-09-18T08:34:40;100795.75;;;20.55;62.19
71126;BME280;58785;55.566;38.058;2023-09-18T08:37:06;100794.75;;;20.62;61.64
71126;BME280;58785;55.566;38.058;2023-09-18T08:39:34;100790.50;;;20.53;61.40
71126;BME280;58785;55.566;38.058;2023-09-18T08:42:07;100791.41;;;20.39;61.36
71126;BME280;58785;55.566;38.058;2023-09-18T08:44:38;100783.53;;;20.23;61.70
71126;BME280;58785;55.566;38.058;2023-09-18T08:47:08;100795.53;;;20.35;61.64
71126;BME280;58785;55.566;38.058;2023-09-18T08:49:37;100794.44;;;20.29;61.58
71126;BME280;58785;55.566;38.058;2023-09-18T08:52:10;100794.34;;;20.23;61.18
71126;BME280;58785;55.566;38.058;2023-09-18T08:54:37;100794.84;;;20.05;61.40
71126;BME280;58785;55.566;38.058;2023-09-18T08:57:03;100777.78;;;20.11;61.82
71126;BME280;58785;55.566;38.058;2023-09-18T08:59:35;100776.50;;;20.28;61.55
71126;BME280;58785;55.566;38.058;2023-09-18T09:02:01;100776.00;;;20.18;60.98
71126;BME280;58785;55.566;38.058;2023-09-18T09:04:28;100784.25;;;20.10;61.40
71126;BME280;58785;55.566;38.058;2023-09-18T09:06:54;100787.78;;;20.10;61.85
71126;BME280;58785;55.566;38.058;2023-09-18T09:09:25;100787.59;;;20.12;61.59
71126;BME280;58785;55.566;38.058;2023-09-18T09:11:55;100799.22;;;20.06;61.62
71126;BME280;58785;55.566;38.058;2023-09-18T09:14:21;100797.19;;;19.93;61.84
71126;BME280;58785;55.566;38.058;2023-09-18T09:16:55;100798.31;;;19.84;62.27
71126;BME280;58785;55.566;38.058;2023-09-18T09:19:33;100784.84;;;19.69;62.17
71126;BME280;58785;55.566;38.058;2023-09-18T09:22:03;100796.50;;;19.70;62.38
71126;BME280;58785;55.566;38.058;2023-09-18T09:24:42;100790.44;;;19.68;62.43
71126;BME280;58785;55.566;38.058;2023-09-18T09:27:11;100781.41;;;19.61;62.58
71126;BME280;58785;55.566;38.058;2023-09-18T09:29:39;100791.28;;;19.68;62.46
71126;BME280;58785;55.566;38.058;2023-09-18T09:32:13;100778.00;;;19.73;62.64
71126;BME280;58785;55.566;38.058;2023-09-18T09:34:41;100783.94;;;19.84;62.15
71126;BME280;58785;55.566;38.058;2023-09-18T09:37:07;100782.22;;;19.76;62.10
71126;BME280;58785;55.566;38.058;2023-09-18T09:39:34;100778.19;;;19.87;61.96
71126;BME280;58785;55.566;38.058;2023-09-18T09:42:03;100786.88;;;20.03;62.02
71126;BME280;58785;55.566;38.058;2023-09-18T09:44:32;100781.09;;;20.06;61.90
71126;BME280;58785;55.566;38.058;2023-09-18T09:46:59;100778.44;;;19.92;61.88
71126;BME280;58785;55.566;38.058;2023-09-18T09:49:25;100783.59;;;19.87;62.45
71126;BME280;58785;55.566;38.058;2023-09-18T09:51:59;100789.91;;;19.94;62.74
71126;BME280;58785;55.566;38.058;2023-09-18T09:54:34;100789.53;;;19.97;62.76
71126;BME280;58785;55.566;38.058;2023-09-18T09:57:02;100795.31;;;19.94;62.47
71126;BME280;58785;55.566;38.058;2023-09-18T09:59:29;100794.03;;;19.90;62.69
71126;BME280;58785;55.566;38.058;2023-09-18T10:01:56;100801.31;;;19.89;62.62
71126;BME280;58785;55.566;38.058;2023-09-18T10:04:28;100807.97;;;19.87;62.57
71126;BME280;58785;55.566;38.058;2023-09-18T10:07:07;100796.41;;;19.78;62.73
71126;BME280;58785;55.566;38.058;2023-09-18T10:09:35;100796.41;;;19.63;63.04
71126;BME280;58785;55.566;38.058;2023-09-18T10:12:04;100803.19;;;19.74;63.25
71126;BME280;58785;55.566;38.058;2023-09-18T10:14:35;100805.34;;;19.78;62.94
71126;BME280;58785;55.566;38.058;2023-09-18T10:17:17;100806.84;;;19.81;62.84
71126;BME280;58785;55.566;38.058;2023-09-18T10:24:54;100807.53;;;19.68;63.28
71126;BME280;58785;55.566;38.058;2023-09-18T10:27:27;100801.19;;;19.61;63.12
71126;BME280;58785;55.566;38.058;2023-09-18T10:29:54;100809.09;;;19.63;63.43
71126;BME280;58785;55.566;38.058;2023-09-18T10:32:21;100811.16;;;19.61;63.40
71126;BME280;58785;55.566;38.058;2023-09-18T10:34:48;100812.75;;;19.55;63.89
71126;BME280;58785;55.566;38.058;2023-09-18T10:37:15;100799.06;;;19.57;63.95
71126;BME280;58785;55.566;38.058;2023-09-18T10:39:42;100805.75;;;19.61;63.74
71126;BME280;58785;55.566;38.058;2023-09-18T10:42:12;100805.56;;;19.62;63.93
71126;BME280;58785;55.566;38.058;2023-09-18T10:44:40;100811.91;;;19.69;63.68
71126;BME280;58785;55.566;38.058;2023-09-18T10:47:09;100799.22;;;19.70;63.74
71126;BME280;58785;55.566;38.058;2023-09-18T10:49:36;100795.56;;;19.63;63.92
71126;BME280;58785;55.566;38.058;2023-09-18T10:52:03;100797.44;;;19.62;63.96
71126;BME280;58785;55.566;38.058;2023-09-18T10:54:30;100802.81;;;19.56;63.99
71126;BME280;58785;55.566;38.058;2023-09-18T10:56:57;100799.88;;;19.42;64.20
71126;BME280;58785;55.566;38.058;2023-09-18T10:59:24;100808.56;;;19.38;64.60
71126;BME280;58785;55.566;38.058;2023-09-18T11:01:50;100796.75;;;19.24;64.81
71126;BME280;58785;55.566;38.058;2023-09-18T11:04:20;100806.69;;;19.23;65.13
71126;BME280;58785;55.566;38.058;2023-09-18T11:09:24;100799.03;;;19.12;65.29
71126;BME280;58785;55.566;38.058;2023-09-18T11:14:44;100798.78;;;19.07;65.74
71126;BME280;58785;55.566;38.058;2023-09-18T11:17:30;100790.66;;;19.07;65.67
71126;BME280;58785;55.566;38.058;2023-09-18T11:22:46;100788.25;;;18.98;65.73
71126;BME280;58785;55.566;38.058;2023-09-18T11:25:35;100798.22;;;19.12;65.55
71126;BME280;58785;55.566;38.058;2023-09-18T11:28:04;100802.31;;;19.22;65.29
71126;BME280;58785;55.566;38.058;2023-09-18T11:30:37;100802.41;;;19.29;65.06
71126;BME280;58785;55.566;38.058;2023-09-18T11:33:06;100805.41;;;19.34;65.19
71126;BME280;58785;55.566;38.058;2023-09-18T11:35:35;100794.19;;;19.37;65.25
71126;BME280;58785;55.566;38.058;2023-09-18T11:38:10;100795.41;;;19.49;65.16
71126;BME280;58785;55.566;38.058;2023-09-18T11:40:38;100803.63;;;19.56;65.03
71126;BME280;58785;55.566;38.058;2023-09-18T11:43:27;100797.19;;;19.57;64.97
71126;BME280;58785;55.566;38.058;2023-09-18T11:46:01;100797.56;;;19.54;64.56
71126;BME280;58785;55.566;38.058;2023-09-18T11:48:30;100808.72;;;19.51;64.99
71126;BME280;58785;55.566;38.058;2023-09-18T11:51:00;100808.28;;;19.47;64.94
71126;BME280;58785;55.566;38.058;2023-09-18T11:53:34;100807.53;;;19.39;65.09
71126;BME280;58785;55.566;38.058;2023-09-18T11:56:02;100802.59;;;19.28;65.05
71126;BME280;58785;55.566;38.058;2023-09-18T11:58:29;100799.59;;;19.22;65.36
71126;BME280;58785;55.566;38.058;2023-09-18T12:00:56;100806.13;;;19.13;65.48
71126;BME280;58785;55.566;38.058;2023-09-18T12:03:23;100797.84;;;19.00;65.51
71126;BME280;58785;55.566;38.058;2023-09-18T12:05:57;100813.59;;;18.97;65.69
71126;BME280;58785;55.566;38.058;2023-09-18T12:08:25;100808.06;;;18.90;65.91
71126;BME280;58785;55.566;38.058;2023-09-18T12:10:54;100807.97;;;18.83;66.22
71126;BME280;58785;55.566;38.058;2023-09-18T12:13:21;100806.78;;;18.86;66.25
71126;BME280;58785;55.566;38.058;2023-09-18T12:15:48;100810.97;;;18.88;66.30
71126;BME280;58785;55.566;38.058;2023-09-18T12:18:15;100801.38;;;18.86;66.24
71126;BME280;58785;55.566;38.058;2023-09-18T12:20:47;100803.69;;;18.89;66.29
71126;BME280;58785;55.566;38.058;2023-09-18T12:23:13;100798.59;;;18.94;66.20
71126;BME280;58785;55.566;38.058;2023-09-18T12:25:39;100799.84;;;18.83;66.34
71126;BME280;58785;55.566;38.058;2023-09-18T12:28:07;100812.63;;;18.75;66.97
71126;BME280;58785;55.566;38.058;2023-09-18T12:30:33;100807.75;;;18.70;67.06
71126;BME280;58785;55.566;38.058;2023-09-18T12:33:00;100811.69;;;18.67;67.42
71126;BME280;58785;55.566;38.058;2023-09-18T12:35:27;100806.03;;;18.77;67.37
71126;BME280;58785;55.566;38.058;2023-09-18T12:38:00;100810.28;;;18.72;67.56
71126;BME280;58785;55.566;38.058;2023-09-18T12:40:28;100806.41;;;18.74;67.39
71126;BME280;58785;55.566;38.058;2023-09-18T12:42:58;100798.94;;;18.76;67.38
71126;BME280;58785;55.566;38.058;2023-09-18T12:45:25;100799.41;;;18.80;67.16
71126;BME280;58785;55.566;38.058;2023-09-18T12:47:54;100802.09;;;18.80;67.25
71126;BME280;58785;55.566;38.058;2023-09-18T12:50:21;100810.22;;;18.80;67.34
71126;BME280;58785;55.566;38.058;2023-09-18T12:52:47;100805.84;;;18.79;67.58
71126;BME280;58785;55.566;38.058;2023-09-18T12:55:26;100796.88;;;18.78;67.35
71126;BME280;58785;55.566;38.058;2023-09-18T12:57:53;100809.84;;;18.83;67.21